createdAt,value
2023-02-18T00:01:12.688Z,7.71
2023-02-18T00:03:39.941Z,7.70
2023-02-18T00:06:12.544Z,7.71
2023-02-18T00:08:39.443Z,7.69
2023-02-18T00:11:06.807Z,7.72
2023-02-18T00:13:33.445Z,7.73
2023-02-18T00:16:11.095Z,7.76
2023-02-18T00:18:39.143Z,7.76
2023-02-18T00:21:07.548Z,7.77
2023-02-18T00:23:34.227Z,7.78
2023-02-18T00:26:07.994Z,7.82
2023-02-18T00:28:35.341Z,7.86
2023-02-18T00:31:10.081Z,7.85
2023-02-18T00:33:37.349Z,7.86
2023-02-18T00:36:10.286Z,7.86
2023-02-18T00:38:37.339Z,7.86
2023-02-18T00:41:04.728Z,7.86
2023-02-18T00:43:31.288Z,7.84
2023-02-18T00:45:57.853Z,7.81
2023-02-18T00:48:24.365Z,7.81
2023-02-18T00:50:51.014Z,7.81
2023-02-18T00:53:17.479Z,7.82
2023-02-18T00:55:49.665Z,7.84
2023-02-18T00:58:16.314Z,7.87
2023-02-18T01:00:42.857Z,7.87
2023-02-18T01:03:09.437Z,7.91
2023-02-18T01:05:37.342Z,7.95
2023-02-18T01:08:04.787Z,7.99
2023-02-18T01:10:31.533Z,8.01
2023-02-18T01:12:58.340Z,8.05
2023-02-18T01:15:24.917Z,8.04
2023-02-18T01:17:51.848Z,8.07
2023-02-18T01:20:19.347Z,8.06
2023-02-18T01:22:46.761Z,8.11
2023-02-18T01:25:13.978Z,8.18
2023-02-18T01:27:40.634Z,8.19
2023-02-18T01:30:10.074Z,8.21
2023-02-18T01:32:36.662Z,8.19
2023-02-18T01:35:05.860Z,8.18
2023-02-18T01:37:32.448Z,8.17
2023-02-18T01:39:58.937Z,8.19
2023-02-18T01:42:28.076Z,8.22
2023-02-18T01:44:55.007Z,8.22
2023-02-18T01:47:21.581Z,8.19
2023-02-18T01:49:51.155Z,8.17
2023-02-18T01:52:25.886Z,8.11
2023-02-18T01:54:56.910Z,8.08
2023-02-18T01:57:28.074Z,8.06
2023-02-18T02:00:06.628Z,8.08
2023-02-18T02:02:35.661Z,7.99
2023-02-18T02:05:02.238Z,7.99
2023-02-18T02:07:29.396Z,8.01
2023-02-18T02:09:57.570Z,7.98
2023-02-18T02:12:23.984Z,8.00
2023-02-18T02:15:12.396Z,8.01
2023-02-18T02:17:57.070Z,7.99
2023-02-18T02:21:01.168Z,8.00
2023-02-18T02:24:04.920Z,8.00
2023-02-18T02:26:55.918Z,7.99
2023-02-18T02:29:51.667Z,8.01
2023-02-18T02:32:36.566Z,8.02
2023-02-18T02:35:06.958Z,8.02
2023-02-18T02:37:42.677Z,8.03
2023-02-18T02:40:18.345Z,8.05
2023-02-18T02:43:04.796Z,8.10
2023-02-18T02:46:22.412Z,8.12
2023-02-18T02:49:00.628Z,8.15
2023-02-18T02:51:40.734Z,8.15
2023-02-18T02:54:14.947Z,8.17
2023-02-18T02:56:41.513Z,8.18
2023-02-18T02:59:13.473Z,8.17
2023-02-18T03:01:58.660Z,8.17
2023-02-18T03:04:53.103Z,8.19
2023-02-18T03:07:42.091Z,8.19
2023-02-18T03:10:46.237Z,8.18
2023-02-18T03:13:29.001Z,8.16
2023-02-18T03:16:01.853Z,8.15
2023-02-18T03:18:38.642Z,8.14
2023-02-18T03:21:14.191Z,8.13
2023-02-18T03:23:54.476Z,8.14
2023-02-18T03:26:21.379Z,8.14
2023-02-18T03:28:49.380Z,8.14
2023-02-18T03:31:19.078Z,8.13
2023-02-18T03:33:52.784Z,8.14
2023-02-18T03:36:20.733Z,8.11
2023-02-18T03:38:57.406Z,8.13
2023-02-18T03:41:24.032Z,8.11
2023-02-18T03:43:56.485Z,8.11
2023-02-18T03:46:23.080Z,8.13
2023-02-18T03:48:49.636Z,8.13
2023-02-18T03:51:16.109Z,8.15
2023-02-18T03:53:42.769Z,8.15
2023-02-18T03:56:09.445Z,8.16
2023-02-18T03:58:36.146Z,8.17
2023-02-18T04:01:02.791Z,8.19
2023-02-18T04:03:29.327Z,8.21
2023-02-18T04:05:56.010Z,8.24
2023-02-18T04:08:22.616Z,8.23
2023-02-18T04:10:49.109Z,8.22
2023-02-18T04:13:17.555Z,8.20
2023-02-18T04:15:45.170Z,8.20
2023-02-18T04:18:12.238Z,8.21
2023-02-18T04:20:38.820Z,8.18
2023-02-18T04:23:05.375Z,8.19
2023-02-18T04:25:32.192Z,8.22
2023-02-18T04:27:59.034Z,8.23
2023-02-18T04:30:25.768Z,8.22
2023-02-18T04:32:52.547Z,8.20
2023-02-18T04:35:19.052Z,8.18
2023-02-18T04:37:45.829Z,8.17
2023-02-18T04:40:12.524Z,8.22
2023-02-18T04:42:39.347Z,8.26
2023-02-18T04:45:06.351Z,8.29
2023-02-18T04:47:33.015Z,8.32
2023-02-18T04:49:59.514Z,8.32
2023-02-18T04:52:26.234Z,8.32
2023-02-18T04:54:52.889Z,8.32
2023-02-18T04:57:19.386Z,8.29
2023-02-18T04:59:45.868Z,8.29
2023-02-18T05:02:12.328Z,8.31
2023-02-18T05:04:38.817Z,8.32
2023-02-18T05:07:05.288Z,8.34
2023-02-18T05:09:31.868Z,8.37
2023-02-18T05:11:58.298Z,8.38
2023-02-18T05:14:24.934Z,8.40
2023-02-18T05:16:51.473Z,8.41
2023-02-18T05:19:17.979Z,8.41
2023-02-18T05:21:44.735Z,8.38
2023-02-18T05:24:11.244Z,8.37
2023-02-18T05:26:37.896Z,8.37
2023-02-18T05:29:04.853Z,8.33
2023-02-18T05:31:31.556Z,8.31
2023-02-18T05:33:58.242Z,8.25
2023-02-18T05:36:25.070Z,8.25
2023-02-18T05:38:51.528Z,8.22
2023-02-18T05:41:18.142Z,8.21
2023-02-18T05:44:03.278Z,8.21
2023-02-18T05:46:29.851Z,8.23
2023-02-18T05:48:56.440Z,8.24
2023-02-18T05:51:23.070Z,8.26
2023-02-18T05:53:49.541Z,8.27
2023-02-18T05:56:16.306Z,8.27
2023-02-18T05:58:42.768Z,8.27
2023-02-18T06:01:09.215Z,8.27
2023-02-18T06:03:35.667Z,8.31
2023-02-18T06:06:02.378Z,8.31
2023-02-18T06:08:29.001Z,8.33
2023-02-18T06:10:55.549Z,8.34
2023-02-18T06:13:22.118Z,8.37
2023-02-18T06:15:51.544Z,8.41
2023-02-18T06:18:18.632Z,8.41
2023-02-18T06:20:47.020Z,8.40
2023-02-18T06:23:13.607Z,8.44
2023-02-18T06:25:40.577Z,8.41
2023-02-18T06:28:07.075Z,8.43
2023-02-18T06:30:33.647Z,8.42
2023-02-18T06:33:00.382Z,8.42
2023-02-18T06:35:26.934Z,8.42
2023-02-18T06:37:53.456Z,8.41
2023-02-18T06:40:19.965Z,8.41
2023-02-18T06:42:46.430Z,8.41
2023-02-18T06:45:13.037Z,8.41
2023-02-18T06:47:39.712Z,8.42
2023-02-18T06:50:06.966Z,8.42
2023-02-18T06:52:34.650Z,8.42
2023-02-18T06:55:01.360Z,8.43
2023-02-18T06:57:27.880Z,8.43
2023-02-18T06:59:54.360Z,8.45
2023-02-18T07:02:20.813Z,8.43
2023-02-18T07:04:47.380Z,8.45
2023-02-18T07:07:13.981Z,8.44
2023-02-18T07:09:40.495Z,8.44
2023-02-18T07:12:07.123Z,8.46
2023-02-18T07:14:33.600Z,8.49
2023-02-18T07:17:00.090Z,8.53
2023-02-18T07:19:26.632Z,8.53
2023-02-18T07:21:54.459Z,8.53
2023-02-18T07:24:20.939Z,8.56
2023-02-18T07:26:47.413Z,8.60
2023-02-18T07:29:13.861Z,8.60
2023-02-18T07:31:40.437Z,8.62
2023-02-18T07:34:06.922Z,8.61
2023-02-18T07:36:33.450Z,8.67
2023-02-18T07:39:00.022Z,8.67
2023-02-18T07:41:26.550Z,8.68
2023-02-18T07:43:53.030Z,8.68
2023-02-18T07:46:19.622Z,8.69
2023-02-18T07:48:46.271Z,8.69
2023-02-18T07:51:13.515Z,8.68
2023-02-18T07:53:40.286Z,8.69
2023-02-18T07:56:07.567Z,8.70
2023-02-18T07:58:36.766Z,8.71
2023-02-18T08:01:10.714Z,8.69
2023-02-18T08:03:37.296Z,8.69
2023-02-18T08:06:05.349Z,8.70
2023-02-18T08:08:32.338Z,8.70
2023-02-18T08:11:10.230Z,8.68
2023-02-18T08:13:40.166Z,8.71
2023-02-18T08:16:07.207Z,8.73
2023-02-18T08:18:33.933Z,8.71
2023-02-18T08:21:00.434Z,8.67
2023-02-18T08:23:26.957Z,8.67
2023-02-18T08:25:54.394Z,8.67
2023-02-18T08:28:22.606Z,8.74
2023-02-18T08:30:51.589Z,8.80
2023-02-18T08:33:18.459Z,8.82
2023-02-18T08:35:46.116Z,8.82
2023-02-18T08:38:12.803Z,8.79
2023-02-18T08:40:40.875Z,8.75
2023-02-18T08:43:07.622Z,8.75
2023-02-18T08:45:36.033Z,8.76
2023-02-18T08:48:16.698Z,8.75
2023-02-18T08:50:46.768Z,8.75
2023-02-18T08:53:13.221Z,8.73
2023-02-18T08:55:41.269Z,8.74
2023-02-18T08:58:08.047Z,8.76
2023-02-18T09:00:34.934Z,8.77
2023-02-18T09:03:01.663Z,8.82
2023-02-18T09:05:28.480Z,8.86
2023-02-18T09:07:54.976Z,8.85
2023-02-18T09:10:21.713Z,8.90
2023-02-18T09:12:48.216Z,8.92
2023-02-18T09:15:14.914Z,8.89
2023-02-18T09:17:41.682Z,8.94
2023-02-18T09:20:08.702Z,8.92
2023-02-18T09:22:35.235Z,8.93
2023-02-18T09:25:01.724Z,8.92
2023-02-18T09:27:28.251Z,8.91
2023-02-18T09:29:54.850Z,8.88
2023-02-18T09:32:33.696Z,8.88
2023-02-18T09:35:01.682Z,8.90
2023-02-18T09:37:28.879Z,8.90
2023-02-18T09:39:55.563Z,8.94
2023-02-18T09:42:28.092Z,8.96
2023-02-18T09:44:56.419Z,8.99
2023-02-18T09:47:33.567Z,9.01
2023-02-18T09:50:07.363Z,9.09
2023-02-18T09:52:37.455Z,9.10
2023-02-18T09:55:30.328Z,9.12
2023-02-18T09:58:02.125Z,9.16
2023-02-18T10:00:44.095Z,9.14
2023-02-18T10:03:22.387Z,9.15
2023-02-18T10:05:58.531Z,9.20
2023-02-18T10:08:36.378Z,9.26
2023-02-18T10:11:03.490Z,9.27
2023-02-18T10:13:33.503Z,9.24
2023-02-18T10:16:00.611Z,9.28
2023-02-18T10:18:32.799Z,9.27
2023-02-18T10:21:14.699Z,9.29
2023-02-18T10:23:53.889Z,9.31
2023-02-18T10:26:20.829Z,9.26
2023-02-18T10:28:47.650Z,9.27
2023-02-18T10:31:22.807Z,9.25
2023-02-18T10:33:52.696Z,9.29
2023-02-18T10:36:27.733Z,9.36
2023-02-18T10:39:14.115Z,9.38
2023-02-18T10:41:50.589Z,9.43
2023-02-18T10:44:43.483Z,9.43
2023-02-18T10:47:30.225Z,9.47
2023-02-18T10:50:03.384Z,9.48
2023-02-18T10:52:34.494Z,9.47
2023-02-18T10:55:15.767Z,9.58
2023-02-18T10:57:50.176Z,9.65
2023-02-18T11:00:20.763Z,9.68
2023-02-18T11:03:11.262Z,9.72
2023-02-18T11:05:39.079Z,9.84
2023-02-18T11:08:09.079Z,9.84
2023-02-18T11:10:41.157Z,9.87
2023-02-18T11:13:09.903Z,9.92
2023-02-18T11:15:36.888Z,9.99
2023-02-18T11:18:25.904Z,10.03
2023-02-18T11:21:01.382Z,10.03
2023-02-18T11:23:28.071Z,10.05
2023-02-18T11:25:57.863Z,10.10
2023-02-18T11:28:41.787Z,10.09
2023-02-18T11:31:09.704Z,10.04
2023-02-18T11:33:39.746Z,10.00
2023-02-18T11:36:18.791Z,10.04
2023-02-18T11:39:08.528Z,9.99
2023-02-18T11:41:40.963Z,10.05
2023-02-18T11:44:19.676Z,10.05
2023-02-18T11:47:09.305Z,9.99
2023-02-18T11:49:36.055Z,9.94
2023-02-18T11:52:13.894Z,9.88
2023-02-18T11:54:40.372Z,9.87
2023-02-18T11:57:11.158Z,9.88
2023-02-18T11:59:39.762Z,9.78
2023-02-18T12:02:26.676Z,9.72
2023-02-18T12:05:00.688Z,9.78
2023-02-18T12:07:31.859Z,9.92
2023-02-18T12:10:01.599Z,10.04
2023-02-18T12:12:56.906Z,10.05
2023-02-18T12:15:37.596Z,10.06
2023-02-18T12:18:42.832Z,9.97
2023-02-18T12:21:23.792Z,10.06
2023-02-18T12:24:04.319Z,10.09
2023-02-18T12:26:49.776Z,10.21
2023-02-18T12:29:28.461Z,10.24
2023-02-18T12:32:18.415Z,10.06
2023-02-18T12:35:29.572Z,10.35
2023-02-18T12:38:11.338Z,10.51
2023-02-18T12:41:10.133Z,10.52
2023-02-18T12:44:04.649Z,10.55
2023-02-18T12:46:34.098Z,10.73
2023-02-18T12:49:06.306Z,10.74
2023-02-18T12:51:41.817Z,10.77
2023-02-18T12:54:26.946Z,10.63
2023-02-18T12:57:06.249Z,10.84
2023-02-18T13:00:10.265Z,10.95
2023-02-18T13:03:05.136Z,10.93
2023-02-18T13:05:51.856Z,11.04
2023-02-18T13:08:43.221Z,11.21
2023-02-18T13:11:33.888Z,11.07
2023-02-18T13:14:18.632Z,11.06
2023-02-18T13:16:47.568Z,11.04
2023-02-18T13:19:23.274Z,10.85
2023-02-18T13:21:54.831Z,11.07
2023-02-18T13:24:35.445Z,11.11
2023-02-18T13:27:10.869Z,11.05
2023-02-18T13:30:22.464Z,10.91
2023-02-18T13:33:28.412Z,11.25
2023-02-18T13:36:00.302Z,10.86
2023-02-18T13:38:58.972Z,10.97
2023-02-18T13:41:27.244Z,11.22
2023-02-18T13:43:54.213Z,11.24
2023-02-18T13:46:24.427Z,11.31
2023-02-18T13:48:53.288Z,11.57
2023-02-18T13:51:30.369Z,11.39
2023-02-18T13:54:06.578Z,11.56
2023-02-18T13:56:34.279Z,11.58
2023-02-18T13:59:07.625Z,11.76
2023-02-18T14:01:42.854Z,11.74
2023-02-18T14:04:41.159Z,11.25
2023-02-18T14:07:33.548Z,11.09
2023-02-18T14:10:00.988Z,11.03
2023-02-18T14:12:38.490Z,11.08
2023-02-18T14:15:25.211Z,11.29
2023-02-18T14:18:13.771Z,11.29
2023-02-18T14:20:40.245Z,11.12
2023-02-18T14:23:18.830Z,11.14
2023-02-18T14:26:05.983Z,11.08
2023-02-18T14:28:36.063Z,11.06
2023-02-18T14:31:12.452Z,11.08
2023-02-18T14:33:43.109Z,10.88
2023-02-18T14:36:15.620Z,10.80
2023-02-18T14:39:27.641Z,10.70
2023-02-18T14:41:56.871Z,10.72
2023-02-18T14:44:41.692Z,10.71
2023-02-18T14:47:20.434Z,10.79
2023-02-18T14:49:55.365Z,10.56
2023-02-18T14:52:43.179Z,10.55
2023-02-18T14:55:25.839Z,10.62
2023-02-18T14:58:18.560Z,10.56
2023-02-18T15:00:45.051Z,10.43
2023-02-18T15:03:14.985Z,10.38
2023-02-18T15:05:41.691Z,10.29
2023-02-18T15:08:16.203Z,10.11
2023-02-18T15:10:51.480Z,10.06
2023-02-18T15:13:26.933Z,10.08
2023-02-18T15:15:56.314Z,10.00
2023-02-18T15:18:38.351Z,9.97
2023-02-18T15:21:07.990Z,9.94
2023-02-18T15:23:39.871Z,9.94
2023-02-18T15:26:07.263Z,9.95
2023-02-18T15:28:34.316Z,9.91
2023-02-18T15:31:03.198Z,9.82
2023-02-18T15:33:30.044Z,9.75
2023-02-18T15:36:06.822Z,9.71
2023-02-18T15:38:33.701Z,9.73
2023-02-18T15:41:00.821Z,9.74
2023-02-18T15:43:27.472Z,9.78
2023-02-18T15:45:57.019Z,9.73
2023-02-18T15:48:33.414Z,9.64
2023-02-18T15:51:16.180Z,9.65
2023-02-18T15:53:45.888Z,9.57
2023-02-18T15:56:20.821Z,9.56
2023-02-18T15:58:47.498Z,9.46
2023-02-18T16:01:27.625Z,9.45
2023-02-18T16:03:55.692Z,9.45
2023-02-18T16:06:26.151Z,9.46
2023-02-18T16:09:07.489Z,9.44
2023-02-18T16:11:36.887Z,9.45
2023-02-18T16:14:06.027Z,9.45
2023-02-18T16:16:35.357Z,9.40
2023-02-18T16:19:02.974Z,9.40
2023-02-18T16:21:38.838Z,9.39
2023-02-18T16:24:26.811Z,9.30
2023-02-18T16:27:03.446Z,9.17
2023-02-18T16:29:39.909Z,9.13
2023-02-18T16:32:06.699Z,9.12
2023-02-18T16:34:33.303Z,9.07
2023-02-18T16:37:18.315Z,9.03
2023-02-18T16:39:44.882Z,9.05
2023-02-18T16:42:12.958Z,9.04
2023-02-18T16:44:40.142Z,9.04
2023-02-18T16:47:07.306Z,9.04
2023-02-18T16:49:34.670Z,9.05
2023-02-18T16:52:02.760Z,9.04
2023-02-18T16:54:29.220Z,9.05
2023-02-18T16:56:55.678Z,9.07
2023-02-18T16:59:22.687Z,9.09
2023-02-18T17:01:49.134Z,9.08
2023-02-18T17:04:18.277Z,9.09
2023-02-18T17:06:48.582Z,9.09
2023-02-18T17:09:21.253Z,9.12
2023-02-18T17:11:52.342Z,9.11
2023-02-18T17:14:20.090Z,9.11
2023-02-18T17:16:47.835Z,9.10
2023-02-18T17:19:14.835Z,9.12
2023-02-18T17:21:42.082Z,9.13
2023-02-18T17:24:13.074Z,9.13
2023-02-18T17:26:40.043Z,9.16
2023-02-18T17:29:06.558Z,9.16
2023-02-18T17:31:38.640Z,9.17
2023-02-18T17:34:07.980Z,9.19
2023-02-18T17:36:34.539Z,9.13
2023-02-18T17:39:02.764Z,9.12
2023-02-18T17:41:29.453Z,9.05
2023-02-18T17:43:55.961Z,9.05
2023-02-18T17:46:22.636Z,9.03
2023-02-18T17:48:50.356Z,8.99
2023-02-18T17:51:27.945Z,8.98
2023-02-18T17:53:54.698Z,8.95
2023-02-18T17:56:21.587Z,8.93
2023-02-18T17:58:48.756Z,8.92
2023-02-18T18:01:16.142Z,8.91
2023-02-18T18:03:42.794Z,8.91
2023-02-18T18:06:17.227Z,8.88
2023-02-18T18:08:43.782Z,8.88
2023-02-18T18:11:14.801Z,8.89
2023-02-18T18:13:41.336Z,8.86
2023-02-18T18:16:10.535Z,8.89
2023-02-18T18:18:37.050Z,8.83
2023-02-18T18:21:04.529Z,8.82
2023-02-18T18:23:32.857Z,8.85
2023-02-18T18:25:59.934Z,8.87
2023-02-18T18:28:27.395Z,8.87
2023-02-18T18:30:55.614Z,8.88
2023-02-18T18:33:25.029Z,8.87
2023-02-18T18:35:54.005Z,8.86
2023-02-18T18:38:22.474Z,8.87
2023-02-18T18:40:49.582Z,8.89
2023-02-18T18:43:20.440Z,8.89
2023-02-18T18:45:47.491Z,8.88
2023-02-18T18:48:14.117Z,8.88
2023-02-18T18:50:42.147Z,8.91
2023-02-18T18:53:26.406Z,8.90
2023-02-18T18:55:56.030Z,8.84
2023-02-18T18:58:24.612Z,8.79
2023-02-18T19:00:53.840Z,8.76
2023-02-18T19:03:22.156Z,8.72
2023-02-18T19:05:48.979Z,8.70
2023-02-18T19:08:20.277Z,8.68
2023-02-18T19:10:52.443Z,8.69
2023-02-18T19:13:24.573Z,8.66
2023-02-18T19:16:01.149Z,8.66
2023-02-18T19:18:28.889Z,8.68
2023-02-18T19:20:55.452Z,8.67
2023-02-18T19:23:22.013Z,8.68
2023-02-18T19:25:48.459Z,8.64
2023-02-18T19:28:15.049Z,8.63
2023-02-18T19:30:42.464Z,8.61
2023-02-18T19:33:11.118Z,8.60
2023-02-18T19:35:40.338Z,8.55
2023-02-18T19:38:11.876Z,8.54
2023-02-18T19:40:39.034Z,8.54
2023-02-18T19:43:06.623Z,8.52
2023-02-18T19:45:33.655Z,8.47
2023-02-18T19:48:01.040Z,8.46
2023-02-18T19:50:31.060Z,8.42
2023-02-18T19:52:59.014Z,8.41
2023-02-18T19:55:25.662Z,8.43
2023-02-18T19:57:52.170Z,8.44
2023-02-18T20:00:21.112Z,8.43
2023-02-18T20:02:47.644Z,8.41
2023-02-18T20:05:14.862Z,8.39
2023-02-18T20:07:41.830Z,8.36
2023-02-18T20:10:11.172Z,8.32
2023-02-18T20:12:38.134Z,8.35
2023-02-18T20:15:05.221Z,8.38
2023-02-18T20:17:31.824Z,8.38
2023-02-18T20:19:58.471Z,8.37
2023-02-18T20:22:25.196Z,8.37
2023-02-18T20:24:51.812Z,8.37
2023-02-18T20:27:18.266Z,8.38
2023-02-18T20:29:44.855Z,8.37
2023-02-18T20:32:11.469Z,8.36
2023-02-18T20:34:38.108Z,8.39
2023-02-18T20:37:04.597Z,8.38
2023-02-18T20:39:31.107Z,8.38
2023-02-18T20:41:59.300Z,8.41
2023-02-18T20:44:29.658Z,8.43
2023-02-18T20:46:56.264Z,8.45
2023-02-18T20:49:22.932Z,8.46
2023-02-18T20:51:49.592Z,8.50
2023-02-18T20:54:19.741Z,8.51
2023-02-18T20:56:49.706Z,8.54
2023-02-18T20:59:19.860Z,8.54
2023-02-18T21:01:47.045Z,8.56
2023-02-18T21:04:15.301Z,8.55
2023-02-18T21:06:42.370Z,8.56
2023-02-18T21:09:09.100Z,8.56
2023-02-18T21:11:35.622Z,8.56
2023-02-18T21:14:03.410Z,8.56
2023-02-18T21:16:32.417Z,8.54
2023-02-18T21:18:59.146Z,8.54
2023-02-18T21:21:26.052Z,8.50
2023-02-18T21:23:52.598Z,8.49
2023-02-18T21:26:22.280Z,8.48
2023-02-18T21:28:51.327Z,8.46
2023-02-18T21:31:30.667Z,8.44
2023-02-18T21:33:57.375Z,8.46
2023-02-18T21:36:24.764Z,8.44
2023-02-18T21:38:56.333Z,8.43
2023-02-18T21:41:23.389Z,8.44
2023-02-18T21:43:50.404Z,8.43
2023-02-18T21:46:20.192Z,8.47
2023-02-18T21:49:02.631Z,8.47
2023-02-18T21:51:49.585Z,8.45
2023-02-18T21:54:17.463Z,8.49
2023-02-18T21:56:43.982Z,8.49
2023-02-18T21:59:10.540Z,8.54
2023-02-18T22:01:37.107Z,8.56
2023-02-18T22:04:04.001Z,8.59
2023-02-18T22:06:30.562Z,8.57
2023-02-18T22:09:00.288Z,8.58
2023-02-18T22:11:27.190Z,8.56
2023-02-18T22:13:53.633Z,8.54
2023-02-18T22:16:20.170Z,8.55
2023-02-18T22:18:46.780Z,8.58
2023-02-18T22:21:13.334Z,8.58
2023-02-18T22:23:39.990Z,8.58
2023-02-18T22:26:08.844Z,8.57
2023-02-18T22:28:36.058Z,8.54
2023-02-18T22:31:10.256Z,8.58
2023-02-18T22:33:37.049Z,8.56
2023-02-18T22:36:07.189Z,8.57
2023-02-18T22:38:38.596Z,8.54
2023-02-18T22:41:11.765Z,8.53
2023-02-18T22:43:38.801Z,8.52
2023-02-18T22:46:16.542Z,8.49
2023-02-18T22:48:43.155Z,8.45
2023-02-18T22:51:12.208Z,8.45
2023-02-18T22:53:40.227Z,8.40
2023-02-18T22:56:09.334Z,8.36
2023-02-18T22:58:36.454Z,8.31
2023-02-18T23:01:03.707Z,8.29
2023-02-18T23:03:30.284Z,8.28
2023-02-18T23:06:04.488Z,8.26
2023-02-18T23:08:32.405Z,8.23
2023-02-18T23:11:02.387Z,8.22
2023-02-18T23:13:29.306Z,8.24
2023-02-18T23:16:00.123Z,8.21
2023-02-18T23:18:27.385Z,8.19
2023-02-18T23:21:18.105Z,8.19
2023-02-18T23:23:45.564Z,8.18
2023-02-18T23:26:12.419Z,8.19
2023-02-18T23:28:47.901Z,8.19
2023-02-18T23:31:19.980Z,8.19
2023-02-18T23:33:49.559Z,8.21
2023-02-18T23:36:19.811Z,8.20
2023-02-18T23:38:58.001Z,8.19
2023-02-18T23:41:25.608Z,8.22
2023-02-18T23:43:52.536Z,8.22
2023-02-18T23:46:20.985Z,8.19
2023-02-18T23:48:47.701Z,8.18
2023-02-18T23:51:17.887Z,8.16
2023-02-18T23:53:44.743Z,8.16
2023-02-18T23:56:22.526Z,8.15
2023-02-18T23:58:55.006Z,8.12
